createdAt,value
2023-05-09T00:08:55.346Z,82.39
2023-05-09T00:23:57.613Z,81.31
2023-05-09T00:38:59.610Z,82.23
2023-05-09T00:54:01.822Z,82.69
2023-05-09T01:09:12.497Z,82.89
2023-05-09T01:24:51.153Z,82.24
2023-05-09T01:39:57.901Z,82.28
2023-05-09T01:55:02.408Z,82.60
2023-05-09T02:10:05.919Z,83.21
2023-05-09T02:25:09.004Z,83.11
2023-05-09T02:40:12.246Z,83.91
2023-05-09T02:55:14.425Z,83.35
2023-05-09T03:10:16.581Z,83.16
2023-05-09T03:25:18.611Z,83.43
2023-05-09T03:40:20.900Z,80.08
2023-05-09T03:55:24.069Z,75.70
2023-05-09T04:10:26.089Z,72.46
2023-05-09T04:25:29.700Z,70.87
2023-05-09T04:40:31.831Z,71.11
2023-05-09T04:55:33.771Z,69.38
2023-05-09T05:10:35.860Z,72.33
2023-05-09T05:25:37.885Z,69.90
2023-05-09T05:40:39.918Z,67.40
2023-05-09T05:55:42.008Z,62.08
2023-05-09T06:10:44.015Z,57.79
2023-05-09T06:25:46.017Z,53.06
2023-05-09T06:40:47.983Z,51.20
2023-05-09T06:55:50.077Z,49.27
2023-05-09T07:10:52.088Z,45.53
2023-05-09T07:26:01.794Z,44.88
2023-05-09T07:41:03.768Z,41.97
2023-05-09T07:56:07.106Z,40.58
2023-05-09T08:11:09.053Z,36.22
2023-05-09T08:26:11.085Z,36.16
2023-05-09T08:41:13.005Z,35.89
2023-05-09T08:56:15.390Z,37.01
2023-05-09T09:11:17.898Z,36.10
2023-05-09T09:26:19.921Z,34.15
2023-05-09T09:41:22.415Z,32.36
2023-05-09T09:56:42.187Z,31.48
2023-05-09T10:11:44.484Z,31.79
2023-05-09T10:26:52.595Z,29.57
2023-05-09T10:41:55.239Z,30.74
2023-05-09T10:56:58.233Z,30.18
2023-05-09T11:12:06.241Z,32.41
2023-05-09T11:27:20.921Z,31.87
2023-05-09T11:42:24.659Z,32.31
2023-05-09T11:57:26.632Z,31.53
2023-05-09T12:12:28.671Z,32.35
2023-05-09T12:27:33.048Z,31.92
2023-05-09T12:42:36.139Z,31.35
2023-05-09T12:57:39.495Z,31.83
2023-05-09T13:12:45.573Z,31.15
2023-05-09T13:27:47.516Z,30.94
2023-05-09T13:42:49.523Z,31.97
2023-05-09T13:57:51.522Z,31.36
2023-05-09T14:12:54.572Z,32.36
2023-05-09T14:27:56.627Z,31.17
2023-05-09T14:42:59.684Z,31.79
2023-05-09T14:58:01.677Z,31.19
2023-05-09T15:13:05.722Z,31.00
2023-05-09T15:28:08.029Z,30.11
2023-05-09T15:43:10.086Z,31.09
2023-05-09T15:58:14.179Z,31.94
2023-05-09T16:13:19.546Z,31.90
2023-05-09T16:28:23.733Z,32.75
2023-05-09T16:43:25.922Z,33.17
2023-05-09T16:58:28.344Z,34.78
2023-05-09T17:13:30.349Z,34.87
2023-05-09T17:28:32.478Z,36.21
2023-05-09T17:43:34.882Z,37.94
2023-05-09T17:58:36.965Z,39.77
2023-05-09T18:13:39.102Z,41.99
2023-05-09T18:28:41.236Z,43.95
2023-05-09T18:43:46.939Z,44.88
2023-05-09T18:58:52.870Z,46.39
2023-05-09T19:13:55.765Z,47.76
2023-05-09T19:28:58.645Z,49.54
2023-05-09T19:44:01.432Z,51.46
2023-05-09T19:59:03.475Z,52.13
2023-05-09T20:14:06.096Z,53.20
2023-05-09T20:29:08.900Z,54.60
2023-05-09T20:44:11.493Z,55.43
2023-05-09T20:59:13.548Z,57.64
2023-05-09T21:14:15.470Z,58.03
2023-05-09T21:29:17.354Z,58.75
2023-05-09T21:44:19.254Z,60.01
2023-05-09T21:59:22.449Z,62.97
2023-05-09T22:14:24.328Z,63.92
2023-05-09T22:29:27.688Z,64.57
2023-05-09T22:44:29.646Z,64.47
2023-05-09T22:59:32.337Z,65.39
2023-05-09T23:14:34.251Z,65.87
2023-05-09T23:29:36.158Z,66.16
2023-05-09T23:44:38.018Z,66.93
2023-05-09T23:59:39.955Z,66.43
